createdAt,value
2022-12-18T00:02:57.684Z,99074.21
2022-12-18T00:06:00.799Z,99071.89
2022-12-18T00:09:04.714Z,99080.60
2022-12-18T00:15:18.625Z,99082.48
2022-12-18T00:18:21.507Z,99084.50
2022-12-18T00:21:24.354Z,99095.26
2022-12-18T00:24:27.513Z,99098.61
2022-12-18T00:27:30.383Z,99102.41
2022-12-18T00:30:33.295Z,99106.34
2022-12-18T00:33:37.436Z,99106.84
2022-12-18T00:36:42.113Z,99110.39
2022-12-18T00:39:44.928Z,99112.42
2022-12-18T00:42:56.873Z,99116.58
2022-12-18T00:45:59.822Z,99113.30
2022-12-18T00:49:04.073Z,99114.92
2022-12-18T00:52:06.946Z,99118.81
2022-12-18T00:55:10.374Z,99125.23
2022-12-18T00:58:15.043Z,99128.84
2022-12-18T01:01:18.047Z,99133.54
2022-12-18T01:04:21.003Z,99138.87
2022-12-18T01:07:23.851Z,99148.75
2022-12-18T01:10:27.139Z,99150.23
2022-12-18T01:13:29.908Z,99152.64
2022-12-18T01:16:32.816Z,99155.20
2022-12-18T01:19:35.749Z,99149.33
2022-12-18T01:22:38.804Z,99151.58
2022-12-18T01:25:41.725Z,99152.05
2022-12-18T01:28:45.207Z,99152.64
2022-12-18T01:31:48.081Z,99156.84
2022-12-18T01:34:51.031Z,99158.79
2022-12-18T01:37:57.087Z,99169.95
2022-12-18T01:41:01.170Z,99167.46
2022-12-18T01:44:42.739Z,99170.08
2022-12-18T01:47:57.316Z,99172.31
2022-12-18T01:51:01.326Z,99174.10
2022-12-18T01:54:04.301Z,99179.64
2022-12-18T01:57:07.236Z,99180.75
2022-12-18T02:00:22.271Z,99185.13
2022-12-18T02:03:25.220Z,99189.30
2022-12-18T02:06:41.172Z,99191.50
2022-12-18T02:09:59.572Z,99198.09
2022-12-18T02:13:43.321Z,99195.75
2022-12-18T02:16:58.713Z,99202.80
2022-12-18T02:20:25.867Z,99213.34
2022-12-18T02:23:47.183Z,99216.75
2022-12-18T02:26:52.703Z,99214.77
2022-12-18T02:29:59.164Z,99218.03
2022-12-18T02:33:05.033Z,99218.29
2022-12-18T02:36:11.965Z,99221.61
2022-12-18T02:39:17.574Z,99219.89
2022-12-18T02:42:20.824Z,99219.74
2022-12-18T02:45:23.817Z,99219.42
2022-12-18T02:48:33.877Z,99224.66
2022-12-18T02:52:02.629Z,99223.42
2022-12-18T02:55:20.283Z,99222.68
2022-12-18T02:58:26.061Z,99231.54
2022-12-18T03:01:44.275Z,99233.70
2022-12-18T03:05:19.419Z,99232.75
2022-12-18T03:08:31.220Z,99238.75
2022-12-18T03:11:57.964Z,99242.23
2022-12-18T03:15:17.676Z,99249.20
2022-12-18T03:18:30.734Z,99254.81
2022-12-18T03:21:40.007Z,99253.69
2022-12-18T03:24:43.889Z,99258.88
2022-12-18T03:27:52.356Z,99260.61
2022-12-18T03:31:00.254Z,99251.86
2022-12-18T03:34:10.491Z,99254.49
2022-12-18T03:37:13.434Z,99259.96
2022-12-18T03:40:16.651Z,99262.27
2022-12-18T03:43:57.243Z,99262.77
2022-12-18T03:47:09.142Z,99267.52
2022-12-18T03:50:21.303Z,99267.31
2022-12-18T03:53:32.952Z,99265.40
2022-12-18T03:56:43.276Z,99267.05
2022-12-18T03:59:50.476Z,99274.05
2022-12-18T04:02:56.388Z,99283.32
2022-12-18T04:06:01.972Z,99289.33
2022-12-18T04:09:06.002Z,99289.03
2022-12-18T04:12:09.958Z,99286.96
2022-12-18T04:15:14.072Z,99291.77
2022-12-18T04:18:17.207Z,99303.61
2022-12-18T04:21:20.488Z,99305.41
2022-12-18T04:24:23.360Z,99307.20
2022-12-18T04:27:26.186Z,99304.58
2022-12-18T04:30:29.035Z,99308.84
2022-12-18T04:33:31.928Z,99315.55
2022-12-18T04:36:34.792Z,99322.77
2022-12-18T04:39:37.791Z,99324.57
2022-12-18T04:42:41.691Z,99325.63
2022-12-18T04:45:44.584Z,99330.25
2022-12-18T04:48:48.119Z,99332.96
2022-12-18T04:51:50.945Z,99338.91
2022-12-18T04:54:53.869Z,99340.23
2022-12-18T04:57:56.696Z,99343.83
2022-12-18T05:00:59.517Z,99348.60
2022-12-18T05:04:03.281Z,99356.05
2022-12-18T05:07:06.099Z,99361.38
2022-12-18T05:10:09.508Z,99353.33
2022-12-18T05:13:14.044Z,99354.61
2022-12-18T05:16:17.162Z,99361.61
2022-12-18T05:19:20.175Z,99367.84
2022-12-18T05:22:23.016Z,99367.25
2022-12-18T05:25:25.968Z,99371.41
2022-12-18T05:28:31.171Z,99373.90
2022-12-18T05:31:39.495Z,99373.80
2022-12-18T05:34:42.775Z,99379.31
2022-12-18T05:37:45.790Z,99376.82
2022-12-18T05:40:49.757Z,99374.30
2022-12-18T05:43:52.543Z,99377.52
2022-12-18T05:46:55.454Z,99381.23
2022-12-18T05:49:58.414Z,99380.04
2022-12-18T05:53:01.362Z,99383.34
2022-12-18T05:56:06.147Z,99385.43
2022-12-18T05:59:08.890Z,99386.09
2022-12-18T06:02:11.864Z,99394.50
2022-12-18T06:05:15.166Z,99395.87
2022-12-18T06:08:18.231Z,99396.99
2022-12-18T06:11:24.633Z,99398.06
2022-12-18T06:14:28.847Z,99401.00
2022-12-18T06:17:33.190Z,99398.56
2022-12-18T06:20:37.650Z,99403.36
2022-12-18T06:23:40.932Z,99407.97
2022-12-18T06:26:44.095Z,99406.77
2022-12-18T06:29:47.051Z,99404.60
2022-12-18T06:32:56.311Z,99401.16
2022-12-18T06:36:13.514Z,99407.11
2022-12-18T06:39:16.314Z,99411.70
2022-12-18T06:42:19.355Z,99409.73
2022-12-18T06:45:22.460Z,99419.45
2022-12-18T06:48:25.440Z,99429.03
2022-12-18T06:51:28.320Z,99427.92
2022-12-18T06:54:31.139Z,99428.73
2022-12-18T06:57:33.937Z,99430.14
2022-12-18T07:00:36.922Z,99432.44
2022-12-18T07:03:41.763Z,99427.13
2022-12-18T07:06:44.873Z,99432.86
2022-12-18T07:09:48.049Z,99444.69
2022-12-18T07:12:50.899Z,99454.80
2022-12-18T07:15:53.891Z,99458.47
2022-12-18T07:18:57.302Z,99464.16
2022-12-18T07:22:00.144Z,99466.56
2022-12-18T07:25:03.150Z,99464.48
2022-12-18T07:28:06.044Z,99467.36
2022-12-18T07:31:13.091Z,99474.38
2022-12-18T07:34:16.375Z,99483.90
2022-12-18T07:37:19.327Z,99491.87
2022-12-18T07:40:22.161Z,99490.52
2022-12-18T07:43:25.006Z,99497.06
2022-12-18T07:46:27.777Z,99494.91
2022-12-18T07:49:30.630Z,99496.83
2022-12-18T07:52:33.476Z,99497.85
2022-12-18T07:55:59.931Z,99498.63
2022-12-18T07:59:00.719Z,99501.42
2022-12-18T08:02:04.172Z,99504.10
2022-12-18T08:05:07.286Z,99500.92
2022-12-18T08:08:10.272Z,99506.31
2022-12-18T08:11:13.255Z,99501.64
2022-12-18T08:14:16.191Z,99503.45
2022-12-18T08:17:20.590Z,99503.81
2022-12-18T08:20:23.412Z,99500.95
2022-12-18T08:23:28.722Z,99505.67
2022-12-18T08:26:32.401Z,99508.72
2022-12-18T08:29:35.387Z,99518.32
2022-12-18T08:32:38.195Z,99518.10
2022-12-18T08:35:45.826Z,99517.21
2022-12-18T08:38:49.006Z,99516.68
2022-12-18T08:42:10.608Z,99521.16
2022-12-18T08:45:13.540Z,99525.35
2022-12-18T08:48:21.865Z,99527.76
2022-12-18T08:51:25.219Z,99528.13
2022-12-18T08:54:28.125Z,99536.19
2022-12-18T08:57:31.008Z,99541.30
2022-12-18T09:00:33.781Z,99541.55
2022-12-18T09:03:36.697Z,99543.52
2022-12-18T09:06:39.577Z,99542.86
2022-12-18T09:09:42.455Z,99544.05
2022-12-18T09:12:45.257Z,99538.92
2022-12-18T09:15:53.088Z,99542.75
2022-12-18T09:19:00.619Z,99553.45
2022-12-18T09:22:03.448Z,99561.84
2022-12-18T09:25:09.016Z,99561.98
2022-12-18T09:28:20.275Z,99553.48
2022-12-18T09:31:25.422Z,99547.42
2022-12-18T09:34:28.321Z,99547.05
2022-12-18T09:37:31.134Z,99554.19
2022-12-18T09:40:40.952Z,99551.88
2022-12-18T09:43:58.556Z,99546.05
2022-12-18T09:47:17.493Z,99538.63
2022-12-18T09:50:26.566Z,99546.83
2022-12-18T09:53:34.546Z,99545.07
2022-12-18T09:56:41.962Z,99550.05
2022-12-18T09:59:50.997Z,99554.23
2022-12-18T10:03:02.629Z,99555.45
2022-12-18T10:06:16.479Z,99551.58
2022-12-18T10:09:19.228Z,99545.30
2022-12-18T10:12:36.135Z,99541.09
2022-12-18T10:15:51.921Z,99542.05
2022-12-18T10:19:19.606Z,99538.44
2022-12-18T10:22:44.181Z,99538.80
2022-12-18T10:25:56.673Z,99533.05
2022-12-18T10:29:05.295Z,99524.89
2022-12-18T10:32:15.343Z,99518.00
2022-12-18T10:35:25.276Z,99502.50
2022-12-18T10:38:31.448Z,99502.91
2022-12-18T10:41:34.555Z,99514.53
2022-12-18T10:44:37.502Z,99522.68
2022-12-18T10:47:49.504Z,99517.50
2022-12-18T10:54:23.595Z,99502.70
2022-12-18T10:57:37.870Z,99494.22
2022-12-18T11:00:40.761Z,99490.64
2022-12-18T11:03:46.052Z,99491.80
2022-12-18T11:07:07.201Z,99492.17
2022-12-18T11:10:19.131Z,99487.45
2022-12-18T11:13:25.041Z,99481.05
2022-12-18T11:16:30.097Z,99483.23
2022-12-18T11:19:38.296Z,99484.40
2022-12-18T11:22:41.262Z,99487.96
2022-12-18T11:25:53.596Z,99486.13
2022-12-18T11:29:12.038Z,99485.02
2022-12-18T11:32:46.218Z,99472.45
2022-12-18T11:35:53.112Z,99471.47
2022-12-18T11:38:57.389Z,99478.59
2022-12-18T11:42:13.640Z,99483.75
2022-12-18T11:45:28.014Z,99491.70
2022-12-18T11:48:37.826Z,99494.67
2022-12-18T11:51:57.385Z,99495.16
2022-12-18T11:55:09.722Z,99493.08
2022-12-18T11:58:22.563Z,99495.52
2022-12-18T12:01:52.201Z,99501.11
2022-12-18T12:05:15.205Z,99508.38
2022-12-18T12:08:24.289Z,99506.25
2022-12-18T12:11:44.702Z,99515.23
2022-12-18T12:15:04.504Z,99519.13
2022-12-18T12:18:31.260Z,99523.75
2022-12-18T12:21:40.484Z,99525.58
2022-12-18T12:24:49.578Z,99530.17
2022-12-18T12:28:04.017Z,99530.63
2022-12-18T12:31:06.888Z,99526.20
2022-12-18T12:34:57.872Z,99522.27
2022-12-18T12:38:17.141Z,99529.12
2022-12-18T12:41:46.826Z,99536.27
2022-12-18T12:44:56.460Z,99536.77
2022-12-18T12:48:02.719Z,99537.83
2022-12-18T12:51:14.157Z,99537.27
2022-12-18T12:54:20.978Z,99530.33
2022-12-18T12:57:28.041Z,99536.00
2022-12-18T13:00:50.779Z,99541.04
2022-12-18T13:03:58.524Z,99543.77
2022-12-18T13:07:16.761Z,99545.20
2022-12-18T13:10:23.837Z,99542.02
2022-12-18T13:13:50.576Z,99541.04
2022-12-18T13:17:23.087Z,99544.67
2022-12-18T13:20:35.373Z,99547.14
2022-12-18T13:23:42.181Z,99552.80
2022-12-18T13:26:45.486Z,99554.70
2022-12-18T13:29:48.687Z,99555.41
2022-12-18T13:33:19.131Z,99549.64
2022-12-18T13:36:29.864Z,99544.08
2022-12-18T13:39:35.925Z,99549.11
2022-12-18T13:43:01.263Z,99549.00
2022-12-18T13:46:06.879Z,99550.22
2022-12-18T13:49:22.657Z,99548.98
2022-12-18T13:52:38.398Z,99548.05
2022-12-18T13:55:47.806Z,99546.11
2022-12-18T13:59:17.428Z,99550.72
2022-12-18T14:02:29.930Z,99552.54
2022-12-18T14:05:39.509Z,99557.46
2022-12-18T14:08:47.721Z,99555.84
2022-12-18T14:11:52.185Z,99548.09
2022-12-18T14:14:55.491Z,99546.96
2022-12-18T14:18:17.326Z,99544.88
2022-12-18T14:21:33.493Z,99552.94
2022-12-18T14:24:36.567Z,99558.80
2022-12-18T14:27:44.903Z,99562.38
2022-12-18T14:30:47.955Z,99562.86
2022-12-18T14:33:51.473Z,99567.70
2022-12-18T14:36:56.359Z,99568.95
2022-12-18T14:40:10.151Z,99567.90
2022-12-18T14:43:14.774Z,99565.66
2022-12-18T14:46:31.437Z,99566.64
2022-12-18T14:49:35.910Z,99566.05
2022-12-18T14:52:39.827Z,99573.30
2022-12-18T14:55:48.517Z,99566.16
2022-12-18T14:58:55.361Z,99566.91
2022-12-18T15:01:58.418Z,99566.64
2022-12-18T15:05:12.627Z,99571.67
2022-12-18T15:08:38.024Z,99571.73
2022-12-18T15:11:40.944Z,99577.55
2022-12-18T15:14:43.808Z,99580.46
2022-12-18T15:17:46.636Z,99583.74
2022-12-18T15:20:56.964Z,99582.64
2022-12-18T15:23:59.867Z,99587.78
2022-12-18T15:27:03.136Z,99588.20
2022-12-18T15:30:09.083Z,99594.09
2022-12-18T15:33:27.813Z,99587.83
2022-12-18T15:36:31.447Z,99595.31
2022-12-18T15:39:34.477Z,99598.32
2022-12-18T15:42:56.091Z,99606.45
2022-12-18T15:45:59.064Z,99611.14
2022-12-18T15:49:03.853Z,99614.65
2022-12-18T15:52:07.238Z,99618.72
2022-12-18T15:55:34.001Z,99623.14
2022-12-18T15:58:36.857Z,99624.67
2022-12-18T16:01:42.713Z,99624.21
2022-12-18T16:04:46.933Z,99622.90
2022-12-18T16:07:49.872Z,99623.84
2022-12-18T16:10:52.837Z,99627.40
2022-12-18T16:13:55.675Z,99631.56
2022-12-18T16:17:01.491Z,99632.41
2022-12-18T16:20:04.599Z,99633.61
2022-12-18T16:23:07.907Z,99640.17
2022-12-18T16:26:10.743Z,99647.68
2022-12-18T16:29:13.555Z,99646.68
2022-12-18T16:32:21.378Z,99637.98
2022-12-18T16:35:27.310Z,99644.17
2022-12-18T16:38:30.154Z,99642.42
2022-12-18T16:41:33.724Z,99638.95
2022-12-18T16:44:36.842Z,99641.23
2022-12-18T16:47:40.623Z,99637.51
2022-12-18T16:50:43.555Z,99631.72
2022-12-18T16:53:46.424Z,99633.30
2022-12-18T16:56:51.981Z,99626.21
2022-12-18T16:59:56.804Z,99613.94
2022-12-18T17:03:02.973Z,99611.72
2022-12-18T17:06:06.944Z,99605.54
2022-12-18T17:09:16.902Z,99601.40
2022-12-18T17:12:20.045Z,99596.88
2022-12-18T17:15:22.902Z,99590.95
2022-12-18T17:18:27.113Z,99585.17
2022-12-18T17:21:30.388Z,99582.27
2022-12-18T17:24:35.299Z,99575.24
2022-12-18T17:27:38.739Z,99571.39
2022-12-18T17:30:41.675Z,99571.11
2022-12-18T17:33:44.803Z,99568.83
2022-12-18T17:36:47.715Z,99573.05
2022-12-18T17:39:50.552Z,99574.52
2022-12-18T17:42:53.791Z,99575.88
2022-12-18T17:45:57.304Z,99581.04
2022-12-18T17:49:02.599Z,99584.33
2022-12-18T17:52:05.577Z,99589.66
2022-12-18T17:55:09.139Z,99585.79
2022-12-18T17:58:11.953Z,99578.64
2022-12-18T18:01:16.777Z,99581.55
2022-12-18T18:04:19.747Z,99584.96
2022-12-18T18:07:22.851Z,99592.80
2022-12-18T18:10:25.874Z,99588.90
2022-12-18T18:13:47.416Z,99596.07
2022-12-18T18:16:52.260Z,99596.89
2022-12-18T18:19:55.150Z,99595.82
2022-12-18T18:22:58.089Z,99600.71
2022-12-18T18:26:05.572Z,99608.70
2022-12-18T18:29:12.348Z,99609.54
2022-12-18T18:32:15.526Z,99608.63
2022-12-18T18:35:45.147Z,99603.92
2022-12-18T18:38:45.369Z,99607.19
2022-12-18T18:41:51.839Z,99612.52
2022-12-18T18:44:54.596Z,99610.60
2022-12-18T18:47:58.970Z,99614.86
2022-12-18T18:51:14.686Z,99613.48
2022-12-18T18:54:25.652Z,99620.09
2022-12-18T18:57:30.436Z,99623.13
2022-12-18T19:00:33.818Z,99628.73
2022-12-18T19:03:38.090Z,99633.82
2022-12-18T19:06:41.678Z,99637.05
2022-12-18T19:09:45.466Z,99637.37
2022-12-18T19:13:07.221Z,99642.99
2022-12-18T19:16:10.349Z,99645.73
2022-12-18T19:19:13.932Z,99642.99
2022-12-18T19:22:16.974Z,99648.11
2022-12-18T19:25:19.757Z,99653.23
2022-12-18T19:28:26.359Z,99650.98
2022-12-18T19:31:34.746Z,99656.10
2022-12-18T19:34:39.079Z,99662.55
2022-12-18T19:37:42.140Z,99664.23
2022-12-18T19:40:45.263Z,99660.95
2022-12-18T19:43:49.237Z,99650.42
2022-12-18T19:46:52.230Z,99650.31
2022-12-18T19:49:55.175Z,99640.64
2022-12-18T19:52:58.536Z,99637.20
2022-12-18T19:56:12.893Z,99636.08
2022-12-18T19:59:15.865Z,99639.44
2022-12-18T20:02:20.231Z,99638.64
2022-12-18T20:05:25.433Z,99640.01
2022-12-18T20:08:28.196Z,99640.91
2022-12-18T20:11:33.640Z,99642.17
2022-12-18T20:14:41.521Z,99642.25
2022-12-18T20:17:44.311Z,99632.77
2022-12-18T20:20:48.121Z,99630.11
2022-12-18T20:23:54.640Z,99629.35
2022-12-18T20:26:57.616Z,99631.33
2022-12-18T20:30:00.784Z,99628.34
2022-12-18T20:33:03.910Z,99628.73
2022-12-18T20:36:12.495Z,99631.35
2022-12-18T20:39:16.544Z,99627.13
2022-12-18T20:42:19.634Z,99619.33
2022-12-18T20:45:22.621Z,99612.96
2022-12-18T20:48:26.822Z,99611.52
2022-12-18T20:51:30.717Z,99614.83
2022-12-18T20:54:33.867Z,99611.98
2022-12-18T20:57:36.727Z,99609.52
2022-12-18T21:00:41.238Z,99604.67
2022-12-18T21:03:46.476Z,99596.77
2022-12-18T21:06:54.262Z,99591.70
2022-12-18T21:10:05.691Z,99591.06
2022-12-18T21:13:08.717Z,99587.06
2022-12-18T21:16:12.985Z,99586.70
2022-12-18T21:19:20.430Z,99587.72
2022-12-18T21:22:23.916Z,99590.50
2022-12-18T21:25:27.543Z,99591.73
2022-12-18T21:28:30.341Z,99584.55
2022-12-18T21:31:38.230Z,99579.17
2022-12-18T21:34:46.008Z,99574.42
2022-12-18T21:37:50.841Z,99569.77
2022-12-18T21:40:53.726Z,99566.81
2022-12-18T21:44:07.969Z,99568.15
2022-12-18T21:47:21.570Z,99569.17
2022-12-18T21:50:26.184Z,99571.40
2022-12-18T21:53:29.002Z,99571.59
2022-12-18T21:57:01.037Z,99579.57
2022-12-18T22:00:05.830Z,99583.77
2022-12-18T22:03:18.216Z,99576.98
2022-12-18T22:06:22.529Z,99583.05
2022-12-18T22:09:26.065Z,99579.06
2022-12-18T22:12:43.463Z,99579.27
2022-12-18T22:15:47.555Z,99579.90
2022-12-18T22:18:50.435Z,99585.03
2022-12-18T22:21:54.505Z,99586.03
2022-12-18T22:24:57.440Z,99588.16
2022-12-18T22:28:18.795Z,99594.05
2022-12-18T22:31:21.636Z,99593.33
2022-12-18T22:34:24.520Z,99598.79
2022-12-18T22:37:27.491Z,99600.23
2022-12-18T22:40:30.277Z,99601.58
2022-12-18T22:43:33.511Z,99602.17
2022-12-18T22:46:44.056Z,99599.23
2022-12-18T22:49:48.202Z,99594.74
2022-12-18T22:52:50.993Z,99595.27
2022-12-18T22:56:00.760Z,99591.87
2022-12-18T22:59:04.057Z,99595.80
2022-12-18T23:02:06.974Z,99591.89
2022-12-18T23:05:10.031Z,99587.33
2022-12-18T23:08:12.829Z,99590.04
2022-12-18T23:11:16.768Z,99592.67
2022-12-18T23:14:21.840Z,99592.80
2022-12-18T23:17:25.700Z,99596.88
2022-12-18T23:20:28.863Z,99600.66
2022-12-18T23:23:34.119Z,99601.98
2022-12-18T23:26:37.162Z,99592.75
2022-12-18T23:29:40.658Z,99587.99
2022-12-18T23:32:43.554Z,99583.81
2022-12-18T23:35:46.395Z,99582.45
2022-12-18T23:38:54.572Z,99580.52
2022-12-18T23:41:58.711Z,99568.14
2022-12-18T23:45:03.925Z,99573.33
2022-12-18T23:48:12.331Z,99564.06
2022-12-18T23:51:16.712Z,99565.76
2022-12-18T23:54:30.876Z,99565.76
2022-12-18T23:57:36.507Z,99563.48
